Time;durP1;ratioP1;P1;durP2;ratioP2;P2;SDS_P1;SDS_P2;PMS_P1;PMS_P2;Temp;Humidity;BMP_temperature;BMP_pressure;BME280_temperature;BME280_humidity;BME280_pressure;Samples;Min_cycle;Max_cycle;Signal;HPM_P1;HPM_P2
2021/05/21 00:00:42;;;;;;;14.57;5.45;;;;;;;;;;5015271;28;20026;-70
2021/05/21 00:03:09;;;;;;;10.13;4.15;;;;;;;;;;5010625;28;20022;-69
2021/05/21 00:05:36;;;;;;;9.48;4.60;;;;;;;;;;5009174;28;20501;-70
2021/05/21 00:08:03;;;;;;;10.90;4.25;;;;;;;;;;5015191;28;20045;-70
2021/05/21 00:10:31;;;;;;;12.63;4.35;;;;;;;;;;5013126;28;20022;-70
2021/05/21 00:12:58;;;;;;;15.27;3.35;;;;;;;;;;5006403;28;20026;-68
2021/05/21 00:15:25;;;;;;;12.60;3.55;;;;;;;;;;5008290;28;20065;-67
2021/05/21 00:17:52;;;;;;;15.25;3.25;;;;;;;;;;5012965;28;20026;-68
2021/05/21 00:20:19;;;;;;;12.15;2.85;;;;;;;;;;5011811;28;20470;-68
2021/05/21 00:22:46;;;;;;;17.33;3.70;;;;;;;;;;5013910;28;20478;-68
2021/05/21 00:25:13;;;;;;;11.55;3.65;;;;;;;;;;5008162;28;20084;-69
2021/05/21 00:27:40;;;;;;;11.30;3.20;;;;;;;;;;5012534;28;20470;-68
2021/05/21 00:30:08;;;;;;;14.80;3.78;;;;;;;;;;5005685;28;20034;-68
2021/05/21 00:32:35;;;;;;;17.77;3.30;;;;;;;;;;5008256;28;20030;-68
2021/05/21 00:35:02;;;;;;;14.60;2.78;;;;;;;;;;5009728;28;20029;-68
2021/05/21 00:37:29;;;;;;;17.30;3.28;;;;;;;;;;5010960;28;20030;-69
2021/05/21 00:39:56;;;;;;;20.65;4.28;;;;;;;;;;5009924;28;20034;-68
2021/05/21 00:42:23;;;;;;;15.90;3.58;;;;;;;;;;5011059;28;20028;-66
2021/05/21 00:44:59;;;;;;;13.95;3.47;;;;;;;;;;5014050;28;20041;-68
2021/05/21 00:47:28;;;;;;;17.77;3.55;;;;;;;;;;5013054;28;20018;-69
2021/05/21 00:49:55;;;;;;;18.40;4.20;;;;;;;;;;4992756;28;20412;-67
2021/05/21 00:52:28;;;;;;;14.50;2.65;;;;;;;;;;5012811;28;20033;-68
2021/05/21 00:54:55;;;;;;;17.98;3.25;;;;;;;;;;4994098;28;20022;-68
2021/05/21 00:57:22;;;;;;;15.23;2.63;;;;;;;;;;5004887;28;20017;-68
2021/05/21 00:59:50;;;;;;;15.52;2.58;;;;;;;;;;5011523;28;20029;-67
2021/05/21 01:02:18;;;;;;;15.70;3.22;;;;;;;;;;5010827;28;20053;-67
2021/05/21 01:04:45;;;;;;;18.50;3.38;;;;;;;;;;5011927;28;20391;-67
2021/05/21 01:07:12;;;;;;;21.13;4.38;;;;;;;;;;5013481;28;20141;-68
2021/05/21 01:09:39;;;;;;;19.63;3.05;;;;;;;;;;5012059;28;20038;-66
2021/05/21 01:12:07;;;;;;;17.92;3.50;;;;;;;;;;5013318;28;20026;-68
2021/05/21 01:14:34;;;;;;;14.00;2.85;;;;;;;;;;5010694;28;20033;-67
2021/05/21 01:17:01;;;;;;;12.32;3.10;;;;;;;;;;5008230;28;20026;-69
2021/05/21 01:19:28;;;;;;;17.42;3.55;;;;;;;;;;5012318;28;20030;-67
2021/05/21 01:21:55;;;;;;;16.10;3.55;;;;;;;;;;5012757;28;20080;-68
2021/05/21 01:24:22;;;;;;;15.30;3.08;;;;;;;;;;5013144;28;20483;-67
2021/05/21 01:26:49;;;;;;;12.93;3.25;;;;;;;;;;5010437;28;20026;-68
2021/05/21 01:29:16;;;;;;;13.75;3.35;;;;;;;;;;5013177;28;20160;-68
2021/05/21 01:31:44;;;;;;;16.13;3.40;;;;;;;;;;5006738;28;20030;-68
2021/05/21 01:34:11;;;;;;;17.63;3.60;;;;;;;;;;5008319;28;20059;-68
2021/05/21 01:36:39;;;;;;;18.00;3.97;;;;;;;;;;5021789;28;20068;-69
2021/05/21 01:39:10;;;;;;;16.20;3.03;;;;;;;;;;5033571;28;20529;-68
2021/05/21 01:41:38;;;;;;;14.85;3.15;;;;;;;;;;5012897;28;20033;-68
2021/05/21 01:44:06;;;;;;;11.95;4.18;;;;;;;;;;5013779;28;20026;-68
2021/05/21 01:46:33;;;;;;;15.02;3.28;;;;;;;;;;5012350;28;20026;-68
2021/05/21 01:49:00;;;;;;;17.48;3.95;;;;;;;;;;5013670;28;20108;-68
2021/05/21 01:51:28;;;;;;;15.93;4.10;;;;;;;;;;5011712;28;20029;-68
2021/05/21 01:54:14;;;;;;;15.77;3.28;;;;;;;;;;5008432;28;20021;-68
2021/05/21 01:56:41;;;;;;;11.73;3.28;;;;;;;;;;5011862;28;20111;-68
2021/05/21 01:59:08;;;;;;;14.18;3.88;;;;;;;;;;5011047;28;20034;-67
2021/05/21 02:01:35;;;;;;;16.15;3.88;;;;;;;;;;5011387;28;20030;-68
2021/05/21 02:04:04;;;;;;;13.10;3.67;;;;;;;;;;5013353;28;20116;-68
2021/05/21 02:06:31;;;;;;;12.82;2.90;;;;;;;;;;5011449;28;20593;-68
2021/05/21 02:08:58;;;;;;;11.52;3.15;;;;;;;;;;5012107;28;20029;-69
2021/05/21 02:11:25;;;;;;;14.85;3.72;;;;;;;;;;5007220;28;20042;-68
2021/05/21 02:13:52;;;;;;;11.55;3.30;;;;;;;;;;5011713;28;20363;-68
2021/05/21 02:16:19;;;;;;;10.43;3.40;;;;;;;;;;5010064;28;20081;-68
2021/05/21 02:18:46;;;;;;;13.02;3.40;;;;;;;;;;5013470;28;20386;-68
2021/05/21 02:21:14;;;;;;;11.65;3.08;;;;;;;;;;5010868;28;20022;-68
2021/05/21 02:23:41;;;;;;;15.15;3.53;;;;;;;;;;5011797;28;20022;-68
2021/05/21 02:26:08;;;;;;;14.65;4.43;;;;;;;;;;5011409;28;20026;-68
2021/05/21 02:28:35;;;;;;;8.32;3.40;;;;;;;;;;5009522;28;20030;-68
2021/05/21 02:31:02;;;;;;;15.07;4.28;;;;;;;;;;5010773;28;20076;-69
2021/05/21 02:33:29;;;;;;;13.57;4.40;;;;;;;;;;5012576;28;20435;-69
2021/05/21 02:35:56;;;;;;;14.27;4.15;;;;;;;;;;5010939;28;20030;-68
2021/05/21 02:38:23;;;;;;;14.38;3.90;;;;;;;;;;5012829;28;20109;-68
2021/05/21 02:40:50;;;;;;;17.10;4.25;;;;;;;;;;5010630;28;20030;-68
2021/05/21 02:43:17;;;;;;;26.17;4.95;;;;;;;;;;5012541;28;20018;-69
2021/05/21 02:45:45;;;;;;;14.43;4.13;;;;;;;;;;5007562;28;20084;-68
2021/05/21 02:48:12;;;;;;;13.45;4.15;;;;;;;;;;5009819;28;20029;-69
2021/05/21 02:50:42;;;;;;;19.15;3.60;;;;;;;;;;5011030;28;20104;-69
2021/05/21 02:53:09;;;;;;;23.63;4.72;;;;;;;;;;5012842;28;20022;-68
2021/05/21 02:55:37;;;;;;;26.02;4.30;;;;;;;;;;5011255;28;20087;-69
2021/05/21 02:58:04;;;;;;;19.95;4.35;;;;;;;;;;5012675;28;20080;-68
2021/05/21 03:00:31;;;;;;;21.92;4.35;;;;;;;;;;5010521;28;20544;-68
2021/05/21 03:02:58;;;;;;;25.80;4.00;;;;;;;;;;5012387;28;20033;-68
2021/05/21 03:05:25;;;;;;;22.45;4.90;;;;;;;;;;5010760;28;20627;-69
2021/05/21 03:07:56;;;;;;;17.63;4.32;;;;;;;;;;5012432;28;20470;-68
2021/05/21 03:10:24;;;;;;;25.42;5.18;;;;;;;;;;5010338;28;20034;-69
2021/05/21 03:12:51;;;;;;;20.02;4.45;;;;;;;;;;5012273;28;20148;-69
2021/05/21 03:15:19;;;;;;;24.95;5.40;;;;;;;;;;5008387;28;20197;-69
2021/05/21 03:17:47;;;;;;;23.20;5.25;;;;;;;;;;5012313;28;20025;-68
2021/05/21 03:20:14;;;;;;;17.08;4.55;;;;;;;;;;5010101;28;20065;-68
2021/05/21 03:22:42;;;;;;;20.33;3.67;;;;;;;;;;5008704;28;20034;-69
2021/05/21 03:25:10;;;;;;;25.10;4.15;;;;;;;;;;5007530;28;20030;-68
2021/05/21 03:27:37;;;;;;;18.88;3.60;;;;;;;;;;5011971;28;20033;-68
2021/05/21 03:30:05;;;;;;;26.60;4.93;;;;;;;;;;5010061;28;20029;-68
2021/05/21 03:32:32;;;;;;;25.85;4.95;;;;;;;;;;5013959;28;20030;-68
2021/05/21 03:35:00;;;;;;;28.85;5.97;;;;;;;;;;5014841;28;20104;-69
2021/05/21 03:37:27;;;;;;;27.55;5.43;;;;;;;;;;5014807;28;20033;-68
2021/05/21 03:39:55;;;;;;;31.45;5.22;;;;;;;;;;5010822;28;20060;-69
2021/05/21 03:42:22;;;;;;;23.15;4.40;;;;;;;;;;5014770;28;20466;-68
2021/05/21 03:44:49;;;;;;;16.65;4.32;;;;;;;;;;5014081;28;20455;-69
2021/05/21 03:47:16;;;;;;;30.63;5.35;;;;;;;;;;5013716;28;20101;-69
2021/05/21 03:49:43;;;;;;;30.67;4.45;;;;;;;;;;5013117;28;20690;-69
2021/05/21 03:52:11;;;;;;;24.40;4.68;;;;;;;;;;5013371;28;20433;-68
2021/05/21 03:54:38;;;;;;;26.00;5.15;;;;;;;;;;5013874;28;20026;-69
2021/05/21 03:57:07;;;;;;;35.97;6.75;;;;;;;;;;5012848;28;20433;-68
2021/05/21 03:59:34;;;;;;;21.27;4.07;;;;;;;;;;5013014;28;20034;-68
2021/05/21 04:02:01;;;;;;;21.67;3.65;;;;;;;;;;5012919;28;20109;-68
2021/05/21 04:04:28;;;;;;;23.15;3.97;;;;;;;;;;5006989;28;20018;-68
2021/05/21 04:06:55;;;;;;;19.90;4.53;;;;;;;;;;5014315;28;20105;-69
2021/05/21 04:09:22;;;;;;;27.70;4.38;;;;;;;;;;5012986;28;20049;-68
2021/05/21 04:11:49;;;;;;;27.13;5.38;;;;;;;;;;5014211;28;20024;-68
2021/05/21 04:14:17;;;;;;;21.33;4.47;;;;;;;;;;5014632;28;20053;-68
2021/05/21 04:16:44;;;;;;;25.75;3.72;;;;;;;;;;5013910;28;20038;-69
2021/05/21 04:19:11;;;;;;;23.70;3.92;;;;;;;;;;5015285;28;20435;-68
2021/05/21 04:21:38;;;;;;;20.35;3.30;;;;;;;;;;5012862;28;20121;-68
2021/05/21 04:24:06;;;;;;;20.05;3.63;;;;;;;;;;5014801;28;20030;-69
2021/05/21 04:26:33;;;;;;;26.38;5.07;;;;;;;;;;5013264;28;20022;-68
2021/05/21 04:29:00;;;;;;;26.55;4.43;;;;;;;;;;5011704;28;20029;-68
2021/05/21 04:31:28;;;;;;;18.33;3.45;;;;;;;;;;5010081;28;20060;-68
2021/05/21 04:33:55;;;;;;;17.30;3.22;;;;;;;;;;5014721;28;20047;-68
2021/05/21 04:36:22;;;;;;;20.15;3.80;;;;;;;;;;5012428;28;20148;-68
2021/05/21 04:38:49;;;;;;;30.10;3.92;;;;;;;;;;5008004;28;20034;-68
2021/05/21 04:41:16;;;;;;;21.50;4.70;;;;;;;;;;5011161;28;20446;-67
2021/05/21 04:43:44;;;;;;;14.45;2.92;;;;;;;;;;5013097;28;20030;-67
2021/05/21 04:46:11;;;;;;;20.83;3.78;;;;;;;;;;5011737;28;20088;-67
2021/05/21 04:48:38;;;;;;;28.38;5.00;;;;;;;;;;5013261;28;20026;-68
2021/05/21 04:51:06;;;;;;;25.35;5.82;;;;;;;;;;5010640;28;20036;-67
2021/05/21 04:53:33;;;;;;;21.38;4.20;;;;;;;;;;5013783;28;20517;-67
2021/05/21 04:56:00;;;;;;;23.17;4.00;;;;;;;;;;5012473;28;20052;-67
2021/05/21 04:58:27;;;;;;;20.17;4.32;;;;;;;;;;5012679;28;20021;-67
2021/05/21 05:00:54;;;;;;;18.08;3.63;;;;;;;;;;5004064;28;20045;-68
2021/05/21 05:03:22;;;;;;;22.60;4.30;;;;;;;;;;5009050;28;20471;-68
2021/05/21 05:05:49;;;;;;;23.77;3.97;;;;;;;;;;5007825;28;20387;-67
2021/05/21 05:08:16;;;;;;;24.13;3.50;;;;;;;;;;5013085;28;20152;-67
2021/05/21 05:10:48;;;;;;;16.83;3.30;;;;;;;;;;5005862;28;20029;-67
2021/05/21 05:13:15;;;;;;;15.50;3.20;;;;;;;;;;5008734;28;20105;-68
2021/05/21 05:15:48;;;;;;;18.02;3.22;;;;;;;;;;5004926;28;20056;-68
2021/05/21 05:18:15;;;;;;;19.45;2.60;;;;;;;;;;5012897;28;20033;-68
2021/05/21 05:20:43;;;;;;;19.00;3.50;;;;;;;;;;5018792;28;20028;-68
2021/05/21 05:23:11;;;;;;;14.35;3.08;;;;;;;;;;5028698;28;20025;-68
2021/05/21 05:25:42;;;;;;;18.63;3.55;;;;;;;;;;5012459;28;20048;-68
2021/05/21 05:28:09;;;;;;;24.90;3.50;;;;;;;;;;5013094;28;20088;-68
2021/05/21 05:30:37;;;;;;;12.10;3.22;;;;;;;;;;5011713;28;20041;-68
2021/05/21 05:33:04;;;;;;;17.88;2.72;;;;;;;;;;5033801;28;20486;-68
2021/05/21 05:35:31;;;;;;;17.85;2.75;;;;;;;;;;5008172;28;20053;-67
2021/05/21 05:37:58;;;;;;;18.10;4.05;;;;;;;;;;4994128;28;20033;-68
2021/05/21 05:40:27;;;;;;;18.13;2.90;;;;;;;;;;4993748;28;20382;-68
2021/05/21 05:42:54;;;;;;;17.13;3.00;;;;;;;;;;4994337;28;20064;-68
2021/05/21 05:45:24;;;;;;;14.57;3.13;;;;;;;;;;5001333;28;20052;-68
2021/05/21 05:47:51;;;;;;;21.48;2.97;;;;;;;;;;5013599;28;20038;-68
2021/05/21 05:50:18;;;;;;;14.30;2.63;;;;;;;;;;5018272;28;20120;-68
2021/05/21 05:52:45;;;;;;;16.27;2.83;;;;;;;;;;5022072;28;20352;-68
2021/05/21 05:55:12;;;;;;;17.85;3.17;;;;;;;;;;5016192;28;20033;-68
2021/05/21 05:57:39;;;;;;;21.60;4.55;;;;;;;;;;5012017;28;20485;-68
2021/05/21 06:00:07;;;;;;;14.70;3.13;;;;;;;;;;5016741;28;20112;-67
2021/05/21 06:02:34;;;;;;;18.85;3.40;;;;;;;;;;5033492;28;20033;-68
2021/05/21 06:05:02;;;;;;;15.60;2.72;;;;;;;;;;5018478;28;20014;-68
2021/05/21 06:07:30;;;;;;;17.58;3.05;;;;;;;;;;5030862;28;20030;-68
2021/05/21 06:09:57;;;;;;;13.20;2.67;;;;;;;;;;5029620;28;20033;-68
2021/05/21 06:12:24;;;;;;;18.23;4.07;;;;;;;;;;5033395;28;20032;-68
2021/05/21 06:14:51;;;;;;;15.05;3.00;;;;;;;;;;5019123;28;20053;-67
2021/05/21 06:17:19;;;;;;;17.10;2.97;;;;;;;;;;5032054;28;20103;-68
2021/05/21 06:19:47;;;;;;;18.88;3.45;;;;;;;;;;5026614;28;20034;-68
2021/05/21 06:22:14;;;;;;;16.40;2.83;;;;;;;;;;5009614;28;20046;-68
2021/05/21 06:24:45;;;;;;;20.00;3.15;;;;;;;;;;5008374;28;22897;-68
2021/05/21 06:27:16;;;;;;;14.77;2.80;;;;;;;;;;5012986;28;20026;-68
2021/05/21 06:29:43;;;;;;;18.75;3.30;;;;;;;;;;5008954;28;20026;-67
2021/05/21 06:32:10;;;;;;;21.35;3.63;;;;;;;;;;5009456;28;20034;-67
2021/05/21 06:34:37;;;;;;;26.67;3.97;;;;;;;;;;5001723;28;20101;-68
2021/05/21 06:37:04;;;;;;;18.35;3.63;;;;;;;;;;5011207;28;20030;-67
2021/05/21 06:39:31;;;;;;;14.18;3.42;;;;;;;;;;5008954;28;20042;-67
2021/05/21 06:41:58;;;;;;;10.68;2.28;;;;;;;;;;5009656;28;20029;-68
2021/05/21 06:44:26;;;;;;;19.13;2.80;;;;;;;;;;5010767;28;20022;-68
2021/05/21 06:46:57;;;;;;;18.60;3.35;;;;;;;;;;5012159;28;20022;-67
2021/05/21 06:49:24;;;;;;;21.42;3.53;;;;;;;;;;5009223;28;20063;-68
2021/05/21 06:51:51;;;;;;;17.55;3.75;;;;;;;;;;5011184;28;20025;-68
2021/05/21 06:54:18;;;;;;;16.15;4.30;;;;;;;;;;5009486;28;20030;-68
2021/05/21 06:56:46;;;;;;;24.77;4.30;;;;;;;;;;5008384;28;20048;-68
2021/05/21 06:59:13;;;;;;;23.52;3.42;;;;;;;;;;5008693;28;20029;-67
2021/05/21 07:01:40;;;;;;;16.55;3.28;;;;;;;;;;5006473;28;20022;-67
2021/05/21 07:04:07;;;;;;;15.93;2.90;;;;;;;;;;5009623;28;20057;-68
2021/05/21 07:06:34;;;;;;;15.27;4.22;;;;;;;;;;5008066;28;20535;-68
2021/05/21 07:09:01;;;;;;;11.07;2.50;;;;;;;;;;4993117;28;20056;-67
2021/05/21 07:11:28;;;;;;;25.70;4.15;;;;;;;;;;5007401;28;20022;-67
2021/05/21 07:13:56;;;;;;;14.65;3.17;;;;;;;;;;5007376;28;20096;-67
2021/05/21 07:16:24;;;;;;;22.00;3.65;;;;;;;;;;4997134;28;20053;-67
2021/05/21 07:18:51;;;;;;;17.83;2.90;;;;;;;;;;5007187;28;20026;-67
2021/05/21 07:21:18;;;;;;;17.33;3.72;;;;;;;;;;5007129;28;20095;-68
2021/05/21 07:23:45;;;;;;;17.17;3.08;;;;;;;;;;5010235;28;20021;-68
2021/05/21 07:26:12;;;;;;;14.18;3.03;;;;;;;;;;5007792;28;20026;-67
2021/05/21 07:28:39;;;;;;;15.50;3.75;;;;;;;;;;5009698;28;20038;-68
2021/05/21 07:31:06;;;;;;;16.23;2.63;;;;;;;;;;5006090;28;20132;-67
2021/05/21 07:33:35;;;;;;;15.15;3.30;;;;;;;;;;4990132;28;20447;-67
2021/05/21 07:36:03;;;;;;;14.65;3.03;;;;;;;;;;5007386;28;20022;-68
2021/05/21 07:38:30;;;;;;;16.48;4.53;;;;;;;;;;5007635;28;20079;-68
2021/05/21 07:40:58;;;;;;;13.60;2.70;;;;;;;;;;5006382;28;20110;-67
2021/05/21 07:43:25;;;;;;;14.32;2.50;;;;;;;;;;5007731;28;20181;-67
2021/05/21 07:45:52;;;;;;;15.75;3.72;;;;;;;;;;5003493;28;20075;-68
2021/05/21 07:48:19;;;;;;;13.18;3.20;;;;;;;;;;5008806;28;20022;-68
2021/05/21 07:50:47;;;;;;;18.08;3.97;;;;;;;;;;5008359;28;20029;-67
2021/05/21 07:53:14;;;;;;;10.65;2.67;;;;;;;;;;5009149;28;20105;-68
2021/05/21 07:55:44;;;;;;;14.75;3.08;;;;;;;;;;5006346;28;20215;-68
2021/05/21 07:58:13;;;;;;;17.52;3.75;;;;;;;;;;5008509;28;20164;-67
2021/05/21 08:00:41;;;;;;;15.38;3.50;;;;;;;;;;5005751;28;20503;-68
2021/05/21 08:03:08;;;;;;;18.65;3.10;;;;;;;;;;5007167;28;20087;-68
2021/05/21 08:05:35;;;;;;;15.23;3.20;;;;;;;;;;5006562;28;20041;-68
2021/05/21 08:08:02;;;;;;;17.88;3.55;;;;;;;;;;5007189;28;20130;-67
2021/05/21 08:10:29;;;;;;;17.55;3.58;;;;;;;;;;5006648;28;20030;-68
2021/05/21 08:12:56;;;;;;;15.45;3.33;;;;;;;;;;5007467;28;20014;-68
2021/05/21 08:15:23;;;;;;;17.80;3.28;;;;;;;;;;5006165;28;20430;-68
2021/05/21 08:17:50;;;;;;;13.95;2.78;;;;;;;;;;5011066;28;20024;-67
2021/05/21 08:20:18;;;;;;;10.80;3.05;;;;;;;;;;5014150;28;20022;-68
2021/05/21 08:22:47;;;;;;;14.13;3.25;;;;;;;;;;5014137;28;20045;-69
2021/05/21 08:25:14;;;;;;;17.80;2.88;;;;;;;;;;5013701;28;20022;-70
2021/05/21 08:27:42;;;;;;;12.07;3.00;;;;;;;;;;5009163;28;20101;-70
2021/05/21 08:30:09;;;;;;;11.98;2.78;;;;;;;;;;5014689;28;20034;-69
2021/05/21 08:32:36;;;;;;;18.60;3.42;;;;;;;;;;5014067;28;20470;-69
2021/05/21 08:35:05;;;;;;;20.48;3.72;;;;;;;;;;5014941;28;20482;-70
2021/05/21 08:37:35;;;;;;;18.10;3.15;;;;;;;;;;5014474;28;20037;-69
2021/05/21 08:40:02;;;;;;;11.48;3.22;;;;;;;;;;5014408;28;20144;-70
2021/05/21 08:42:31;;;;;;;15.70;4.20;;;;;;;;;;5014009;28;20029;-69
2021/05/21 08:44:58;;;;;;;13.93;3.28;;;;;;;;;;5013855;28;20108;-70
2021/05/21 08:47:26;;;;;;;14.15;3.00;;;;;;;;;;5010075;28;20029;-70
2021/05/21 08:49:53;;;;;;;17.95;3.47;;;;;;;;;;5013929;28;20378;-69
2021/05/21 08:52:20;;;;;;;13.80;2.83;;;;;;;;;;5013534;28;20052;-69
2021/05/21 08:54:47;;;;;;;16.75;3.70;;;;;;;;;;5008373;28;20092;-69
2021/05/21 08:57:18;;;;;;;14.20;3.35;;;;;;;;;;5013555;28;20034;-69
2021/05/21 08:59:45;;;;;;;15.05;4.00;;;;;;;;;;5013265;28;20157;-69
2021/05/21 09:02:15;;;;;;;12.90;2.92;;;;;;;;;;5013451;28;20026;-69
2021/05/21 09:04:59;;;;;;;17.08;3.65;;;;;;;;;;5014252;28;20117;-69
2021/05/21 09:07:31;;;;;;;18.30;4.25;;;;;;;;;;5013657;28;20040;-69
2021/05/21 09:09:58;;;;;;;16.20;3.47;;;;;;;;;;5011052;28;20032;-69
2021/05/21 09:12:37;;;;;;;16.02;4.03;;;;;;;;;;5013412;28;20084;-69
2021/05/21 09:15:04;;;;;;;12.88;3.20;;;;;;;;;;5014133;28;20452;-69
2021/05/21 09:17:32;;;;;;;15.27;3.20;;;;;;;;;;5013791;28;20233;-69
2021/05/21 09:19:59;;;;;;;16.33;4.53;;;;;;;;;;5014012;28;20518;-70
2021/05/21 09:22:26;;;;;;;25.63;4.30;;;;;;;;;;5011260;28;20390;-70
2021/05/21 09:24:54;;;;;;;13.75;3.55;;;;;;;;;;5011085;28;20022;-69
2021/05/21 09:27:21;;;;;;;15.07;3.70;;;;;;;;;;5010274;28;20520;-69
2021/05/21 09:29:50;;;;;;;11.50;3.13;;;;;;;;;;5013669;28;20030;-70
2021/05/21 09:32:37;;;;;;;14.85;4.32;;;;;;;;;;5013852;28;20030;-70
2021/05/21 09:35:15;;;;;;;16.05;4.15;;;;;;;;;;5012449;28;20044;-69
2021/05/21 09:37:46;;;;;;;19.85;3.83;;;;;;;;;;5013365;28;20053;-69
2021/05/21 09:40:18;;;;;;;8.80;3.50;;;;;;;;;;5013439;28;20647;-69
2021/05/21 09:42:45;;;;;;;12.20;3.13;;;;;;;;;;5014158;28;20018;-69
2021/05/21 09:45:23;;;;;;;14.77;3.80;;;;;;;;;;5013701;28;20014;-70
2021/05/21 09:47:51;;;;;;;14.25;4.20;;;;;;;;;;5014031;28;20034;-69
2021/05/21 09:50:19;;;;;;;19.10;5.60;;;;;;;;;;5012479;28;20033;-70
2021/05/21 09:52:49;;;;;;;14.63;4.50;;;;;;;;;;5012708;28;20076;-69
2021/05/21 09:55:17;;;;;;;19.75;4.75;;;;;;;;;;5012802;28;20512;-69
2021/05/21 09:57:45;;;;;;;17.77;3.90;;;;;;;;;;5012982;28;20026;-69
2021/05/21 10:00:13;;;;;;;10.13;3.28;;;;;;;;;;5012371;28;20464;-69
2021/05/21 10:02:41;;;;;;;14.90;3.72;;;;;;;;;;5013008;28;20026;-69
2021/05/21 10:05:08;;;;;;;9.93;3.13;;;;;;;;;;4992512;28;20025;-69
2021/05/21 10:07:35;;;;;;;15.02;4.68;;;;;;;;;;5013053;28;20076;-69
2021/05/21 10:10:03;;;;;;;15.18;4.30;;;;;;;;;;5012520;28;20028;-69
2021/05/21 10:12:31;;;;;;;13.40;4.22;;;;;;;;;;5011830;28;20049;-69
2021/05/21 10:14:58;;;;;;;14.15;4.15;;;;;;;;;;5011051;28;20069;-69
2021/05/21 10:17:28;;;;;;;13.77;5.03;;;;;;;;;;5017982;28;20080;-69
2021/05/21 10:19:56;;;;;;;16.30;5.28;;;;;;;;;;5012749;28;20045;-69
2021/05/21 10:22:45;;;;;;;14.30;5.30;;;;;;;;;;5012192;28;20034;-69
2021/05/21 10:25:23;;;;;;;19.52;7.22;;;;;;;;;;5012269;28;20160;-69
2021/05/21 10:27:53;;;;;;;22.95;8.05;;;;;;;;;;5012648;28;20018;-69
2021/05/21 10:30:26;;;;;;;16.83;6.70;;;;;;;;;;4994391;28;20021;-69
2021/05/21 10:33:11;;;;;;;22.27;6.70;;;;;;;;;;5012990;28;20103;-69
2021/05/21 10:35:39;;;;;;;25.67;6.00;;;;;;;;;;5012431;28;20386;-69
2021/05/21 10:38:25;;;;;;;19.48;6.05;;;;;;;;;;5013156;28;20018;-68
2021/05/21 10:41:24;;;;;;;17.80;6.10;;;;;;;;;;5011605;28;20475;-69
2021/05/21 10:43:52;;;;;;;17.02;5.82;;;;;;;;;;4980511;28;20038;-69
2021/05/21 10:46:20;;;;;;;25.52;7.72;;;;;;;;;;5012300;28;20475;-68
2021/05/21 10:48:55;;;;;;;18.08;8.43;;;;;;;;;;5012110;28;20064;-68
2021/05/21 10:51:22;;;;;;;22.70;8.90;;;;;;;;;;5012267;28;20022;-69
2021/05/21 10:54:09;;;;;;;21.67;8.05;;;;;;;;;;5012165;28;20026;-69
2021/05/21 10:56:45;;;;;;;19.88;8.43;;;;;;;;;;5011269;28;20032;-69
2021/05/21 10:59:12;;;;;;;18.15;6.75;;;;;;;;;;5005123;28;20029;-68
2021/05/21 11:01:49;;;;;;;18.95;6.65;;;;;;;;;;5012107;28;20105;-69
2021/05/21 11:04:19;;;;;;;18.73;7.60;;;;;;;;;;4994779;28;20044;-68
2021/05/21 11:06:48;;;;;;;17.70;6.20;;;;;;;;;;5012190;28;20110;-69
2021/05/21 11:09:20;;;;;;;19.02;6.47;;;;;;;;;;4992943;28;20073;-69
2021/05/21 11:11:48;;;;;;;18.02;6.50;;;;;;;;;;5012216;28;20033;-69
2021/05/21 11:14:51;;;;;;;18.35;6.45;;;;;;;;;;5013237;28;20591;-69
2021/05/21 11:17:27;;;;;;;21.45;7.18;;;;;;;;;;4951449;28;20039;-68
2021/05/21 11:20:01;;;;;;;20.10;6.65;;;;;;;;;;5004038;28;20410;-69
2021/05/21 11:22:28;;;;;;;18.45;6.68;;;;;;;;;;5011884;28;20084;-69
2021/05/21 11:24:55;;;;;;;22.83;6.65;;;;;;;;;;5011874;28;20474;-69
2021/05/21 11:27:23;;;;;;;19.17;7.75;;;;;;;;;;5010708;28;20030;-68
2021/05/21 11:29:53;;;;;;;20.40;7.53;;;;;;;;;;5012027;28;20694;-69
2021/05/21 11:32:23;;;;;;;21.83;7.75;;;;;;;;;;5012025;28;20030;-69
2021/05/21 11:34:51;;;;;;;24.60;9.18;;;;;;;;;;5012236;28;20379;-69
2021/05/21 11:37:22;;;;;;;17.60;7.10;;;;;;;;;;5011819;28;20018;-69
2021/05/21 11:39:52;;;;;;;21.35;8.77;;;;;;;;;;5012033;28;20030;-69
2021/05/21 11:42:20;;;;;;;16.88;7.72;;;;;;;;;;5004432;28;20014;-69
2021/05/21 11:44:57;;;;;;;20.98;7.45;;;;;;;;;;5012137;28;20080;-69
2021/05/21 11:47:36;;;;;;;17.52;7.50;;;;;;;;;;5011820;28;20025;-69
2021/05/21 11:50:04;;;;;;;21.13;8.95;;;;;;;;;;5012240;28;20026;-69
2021/05/21 11:52:31;;;;;;;17.23;8.20;;;;;;;;;;5008952;28;20030;-68
2021/05/21 11:54:59;;;;;;;21.55;7.72;;;;;;;;;;4997680;28;20035;-69
2021/05/21 11:57:26;;;;;;;18.38;7.93;;;;;;;;;;5015854;28;20026;-69
2021/05/21 11:59:57;;;;;;;24.20;8.35;;;;;;;;;;4998735;28;20034;-69
2021/05/21 12:02:25;;;;;;;28.20;7.57;;;;;;;;;;5015506;28;20377;-69
2021/05/21 12:04:52;;;;;;;28.88;7.63;;;;;;;;;;5016319;28;20149;-69
2021/05/21 12:07:21;;;;;;;26.85;6.70;;;;;;;;;;5015625;28;20033;-68
2021/05/21 12:10:00;;;;;;;15.35;6.07;;;;;;;;;;5015445;28;20434;-69
2021/05/21 12:12:28;;;;;;;19.77;6.88;;;;;;;;;;5008245;28;20112;-69
2021/05/21 12:15:08;;;;;;;21.90;6.60;;;;;;;;;;5015486;28;20048;-69
2021/05/21 12:17:39;;;;;;;17.27;6.97;;;;;;;;;;5014730;28;20756;-69
2021/05/21 12:20:06;;;;;;;23.95;6.95;;;;;;;;;;5013701;28;20026;-69
2021/05/21 12:22:33;;;;;;;20.58;7.22;;;;;;;;;;5012306;28;20387;-69
2021/05/21 12:25:03;;;;;;;21.25;6.88;;;;;;;;;;5013485;28;20514;-69
2021/05/21 12:27:31;;;;;;;25.23;7.20;;;;;;;;;;5012446;28;20794;-69
2021/05/21 12:29:58;;;;;;;20.05;7.00;;;;;;;;;;4997144;28;20037;-70
2021/05/21 12:32:25;;;;;;;20.10;6.18;;;;;;;;;;5013738;28;20116;-70
2021/05/21 12:34:53;;;;;;;20.67;7.43;;;;;;;;;;4995750;28;20046;-69
2021/05/21 12:37:24;;;;;;;22.15;6.32;;;;;;;;;;4994681;28;20089;-69
2021/05/21 12:39:51;;;;;;;20.23;6.50;;;;;;;;;;5013533;28;20026;-70
2021/05/21 12:42:21;;;;;;;21.45;6.82;;;;;;;;;;5013998;28;20025;-70
2021/05/21 12:44:52;;;;;;;15.48;5.75;;;;;;;;;;5012416;28;20071;-70
2021/05/21 12:47:19;;;;;;;17.98;6.20;;;;;;;;;;5004618;28;20591;-69
2021/05/21 12:49:47;;;;;;;21.35;6.43;;;;;;;;;;5012938;28;20030;-69
2021/05/21 12:52:14;;;;;;;17.67;6.22;;;;;;;;;;4996787;28;20038;-69
2021/05/21 12:54:43;;;;;;;18.48;6.13;;;;;;;;;;5014348;28;20022;-69
2021/05/21 12:57:20;;;;;;;23.15;6.40;;;;;;;;;;5013564;28;20021;-69
2021/05/21 12:59:49;;;;;;;18.83;6.82;;;;;;;;;;5012019;28;20025;-69
2021/05/21 13:02:20;;;;;;;23.30;6.50;;;;;;;;;;5010886;28;20080;-70
2021/05/21 13:05:01;;;;;;;17.70;7.43;;;;;;;;;;5010901;28;20018;-70
2021/05/21 13:07:28;;;;;;;13.00;6.90;;;;;;;;;;5012070;28;20021;-70
2021/05/21 13:09:56;;;;;;;19.85;6.22;;;;;;;;;;5011574;28;20533;-70
2021/05/21 13:12:49;;;;;;;20.70;6.43;;;;;;;;;;5013769;28;20398;-71
2021/05/21 13:15:17;;;;;;;19.15;6.25;;;;;;;;;;5009089;28;20045;-70
2021/05/21 13:17:45;;;;;;;18.08;7.07;;;;;;;;;;5012022;28;20022;-70
2021/05/21 13:20:17;;;;;;;21.30;6.97;;;;;;;;;;5010173;28;21837;-71
2021/05/21 13:22:55;;;;;;;16.08;7.55;;;;;;;;;;5010370;28;20026;-71
2021/05/21 13:25:25;;;;;;;20.00;7.68;;;;;;;;;;5012179;28;20128;-70
2021/05/21 13:27:53;;;;;;;17.63;6.85;;;;;;;;;;5012122;28;20057;-70
2021/05/21 13:30:20;;;;;;;14.40;6.68;;;;;;;;;;5011931;28;20033;-70
2021/05/21 13:32:47;;;;;;;18.98;6.63;;;;;;;;;;5011221;28;20390;-70
2021/05/21 13:35:15;;;;;;;21.08;7.25;;;;;;;;;;5009393;28;20026;-70
2021/05/21 13:37:42;;;;;;;25.45;8.07;;;;;;;;;;5011554;28;20029;-71
2021/05/21 13:40:11;;;;;;;17.80;7.53;;;;;;;;;;5011261;28;20105;-70
2021/05/21 13:42:38;;;;;;;21.90;6.88;;;;;;;;;;5009461;28;20021;-70
2021/05/21 13:45:08;;;;;;;19.63;7.05;;;;;;;;;;5008959;28;20391;-70
2021/05/21 13:47:36;;;;;;;18.92;7.55;;;;;;;;;;5008778;28;20026;-70
2021/05/21 13:50:04;;;;;;;19.90;6.90;;;;;;;;;;5009952;28;20487;-70
2021/05/21 13:52:32;;;;;;;18.02;6.90;;;;;;;;;;5009426;28;20033;-70
2021/05/21 13:54:59;;;;;;;23.88;8.93;;;;;;;;;;5011591;28;20038;-70
2021/05/21 13:57:26;;;;;;;16.38;6.85;;;;;;;;;;5011696;28;20053;-69
2021/05/21 13:59:53;;;;;;;18.73;6.72;;;;;;;;;;5010975;28;20033;-70
2021/05/21 14:02:21;;;;;;;15.20;7.18;;;;;;;;;;5010710;28;20049;-70
2021/05/21 14:04:48;;;;;;;18.65;7.70;;;;;;;;;;5008559;28;20482;-70
2021/05/21 14:07:15;;;;;;;19.50;8.80;;;;;;;;;;5011537;28;20193;-70
2021/05/21 14:09:42;;;;;;;13.48;5.93;;;;;;;;;;5010605;28;20054;-70
2021/05/21 14:12:10;;;;;;;18.40;7.57;;;;;;;;;;5011454;28;20151;-70
2021/05/21 14:14:37;;;;;;;15.20;7.03;;;;;;;;;;5010853;28;20029;-69
2021/05/21 14:17:05;;;;;;;23.35;7.78;;;;;;;;;;5011219;28;20037;-70
2021/05/21 14:19:32;;;;;;;19.45;7.10;;;;;;;;;;5012470;28;20026;-69
2021/05/21 14:21:59;;;;;;;18.38;7.50;;;;;;;;;;5011639;28;20068;-70
2021/05/21 14:24:26;;;;;;;15.77;7.15;;;;;;;;;;5011266;28;20030;-70
2021/05/21 14:26:53;;;;;;;14.63;7.90;;;;;;;;;;5010975;28;20024;-70
2021/05/21 14:29:20;;;;;;;24.52;8.65;;;;;;;;;;5011332;28;20393;-70
2021/05/21 14:31:48;;;;;;;17.88;7.45;;;;;;;;;;5011391;28;20022;-70
2021/05/21 14:34:23;;;;;;;14.98;6.35;;;;;;;;;;4993225;28;20249;-69
2021/05/21 14:36:49;;;;;;;;;;;;;;;;;;5011988;28;20018;-69
2021/05/21 14:39:17;;;;;;;20.13;7.85;;;;;;;;;;5009411;28;19920;-70